Time;durP1;ratioP1;P1;durP2;ratioP2;P2;SDS_P1;SDS_P2;PMS_P1;PMS_P2;Temp;Humidity;BMP_temperature;BMP_pressure;BME280_temperature;BME280_humidity;BME280_pressure;Samples;Min_cycle;Max_cycle;Signal;HPM_P1;HPM_P2
2022/01/14 00:01:22;;;;;;;;;;;3.40;99.90;;;;;;4971954;28;19949;-74
2022/01/14 00:03:48;;;;;;;;;;;3.40;99.90;;;;;;4972411;28;19910;-75
2022/01/14 00:06:13;;;;;;;;;;;3.30;99.90;;;;;;4989604;28;19976;-74
2022/01/14 00:08:39;;;;;;;;;;;3.30;99.90;;;;;;4989598;28;20004;-74
2022/01/14 00:11:14;;;;;;;;;;;3.30;99.90;;;;;;4972120;28;19910;-75
2022/01/14 00:16:08;;;;;;;;;;;3.30;99.90;;;;;;4989417;28;19917;-74
2022/01/14 00:18:33;;;;;;;;;;;3.30;99.90;;;;;;4989267;28;19914;-74
2022/01/14 00:21:00;;;;;;;;;;;3.30;99.90;;;;;;4972082;28;20002;-75
2022/01/14 00:23:31;;;;;;;;;;;3.30;99.90;;;;;;4971884;28;19921;-74
2022/01/14 00:31:47;;;;;;;;;;;3.30;99.90;;;;;;5008549;28;19925;-75
2022/01/14 00:34:14;;;;;;;;;;;3.30;99.90;;;;;;4991085;28;19937;-74
2022/01/14 00:36:40;;;;;;;;;;;3.30;99.90;;;;;;5007444;28;19941;-74
2022/01/14 00:39:07;;;;;;;;;;;3.30;99.90;;;;;;5008687;28;19913;-74
2022/01/14 00:41:34;;;;;;;;;;;3.30;99.90;;;;;;5008417;28;19909;-74
2022/01/14 00:44:01;;;;;;;;;;;3.30;99.90;;;;;;4991138;28;19986;-74
2022/01/14 00:46:27;;;;;;;;;;;3.30;99.90;;;;;;5007180;28;19910;-74
2022/01/14 00:48:53;;;;;;;;;;;3.20;99.90;;;;;;5007111;28;19917;-74
2022/01/14 00:51:18;;;;;;;;;;;3.20;99.90;;;;;;5007255;28;19956;-74
2022/01/14 00:53:44;;;;;;;;;;;3.20;99.90;;;;;;5008359;28;19909;-74
2022/01/14 00:59:14;;;;;;;;;;;3.30;99.90;;;;;;4954962;28;19949;-74
2022/01/14 01:02:01;;;;;;;;;;;3.20;99.90;;;;;;5006859;28;19959;-74
2022/01/14 01:04:33;;;;;;;;;;;3.20;99.90;;;;;;5006656;28;19910;-74
2022/01/14 01:07:01;;;;;;;;;;;3.20;99.90;;;;;;5008119;28;19909;-74
2022/01/14 01:09:29;;;;;;;;;;;3.20;99.90;;;;;;5006897;28;19929;-74
2022/01/14 01:12:08;;;;;;;;;;;3.30;99.90;;;;;;5007937;28;20278;-74
2022/01/14 01:14:47;;;;;;;;;;;3.30;99.90;;;;;;5006688;28;19913;-75
2022/01/14 01:17:13;;;;;;;;;;;3.30;99.90;;;;;;5007845;28;19917;-74
2022/01/14 01:19:39;;;;;;;;;;;3.20;99.90;;;;;;5007737;28;19910;-75
2022/01/14 01:22:05;;;;;;;;;;;3.20;99.90;;;;;;5007915;28;19944;-74
2022/01/14 01:24:42;;;;;;;;;;;3.20;99.90;;;;;;5005660;28;19910;-74
2022/01/14 01:27:09;;;;;;;;;;;3.20;99.90;;;;;;5006604;28;19976;-74
2022/01/14 01:32:04;;;;;;;;;;;3.20;99.90;;;;;;5007140;28;20302;-74
2022/01/14 01:34:29;;;;;;;;;;;3.20;99.90;;;;;;4989894;28;19941;-74
2022/01/14 01:36:55;;;;;;;;;;;3.20;99.90;;;;;;5007665;28;19941;-74
2022/01/14 01:39:23;;;;;;;;;;;3.20;99.90;;;;;;5007558;28;19920;-74
2022/01/14 01:41:50;;;;;;;;;;;3.20;99.90;;;;;;5007412;28;20168;-75
2022/01/14 01:44:17;;;;;;;;;;;3.20;99.90;;;;;;5007181;28;19913;-74
2022/01/14 01:46:45;;;;;;;;;;;3.20;99.90;;;;;;5006321;28;19910;-75
2022/01/14 01:49:11;;;;;;;;;;;3.10;99.90;;;;;;5007239;28;20373;-74
2022/01/14 01:51:37;;;;;;;;;;;3.10;99.90;;;;;;5007356;28;19909;-74
2022/01/14 01:54:03;;;;;;;;;;;3.10;99.90;;;;;;5007174;28;19972;-74
2022/01/14 01:56:28;;;;;;;;;;;3.10;99.90;;;;;;5005900;28;19913;-74
2022/01/14 01:58:56;;;;;;;;;;;3.20;99.90;;;;;;5007191;28;19910;-74
2022/01/14 02:01:22;;;;;;;;;;;3.10;99.90;;;;;;5005723;28;19910;-74
2022/01/14 02:03:48;;;;;;;;;;;3.10;99.90;;;;;;5005817;28;19910;-74
2022/01/14 02:06:14;;;;;;;;;;;3.10;99.90;;;;;;4989429;28;19976;-74
2022/01/14 02:08:39;;;;;;;;;;;3.10;99.90;;;;;;4989498;28;19916;-75
2022/01/14 02:11:05;;;;;;;;;;;3.10;99.90;;;;;;4989651;28;19937;-74
2022/01/14 02:13:31;;;;;;;;;;;3.10;99.90;;;;;;4989358;28;19917;-74
2022/01/14 02:23:43;;;;;;;;;;;3.10;99.90;;;;;;5006706;28;19988;-75
2022/01/14 02:26:09;;;;;;;;;;;3.10;99.90;;;;;;4989312;28;20290;-74
2022/01/14 02:28:34;;;;;;;;;;;3.10;99.90;;;;;;5006732;28;19910;-74
2022/01/14 02:31:00;;;;;;;;;;;3.00;99.90;;;;;;4985655;28;19917;-74
2022/01/14 02:33:26;;;;;;;;;;;2.90;99.90;;;;;;4969489;28;19914;-75
2022/01/14 02:35:51;;;;;;;;;;;2.90;99.90;;;;;;4986766;28;19914;-74
2022/01/14 02:38:18;;;;;;;;;;;2.90;99.90;;;;;;4986981;28;19918;-75
2022/01/14 02:40:44;;;;;;;;;;;2.90;99.90;;;;;;4986131;28;19910;-74
2022/01/14 02:43:13;;;;;;;;;;;2.90;99.90;;;;;;4986653;28;19924;-75
2022/01/14 02:45:40;;;;;;;;;;;2.90;99.90;;;;;;4986946;28;19910;-74
2022/01/14 02:48:05;;;;;;;;;;;2.90;99.90;;;;;;4985853;28;19910;-74
2022/01/14 02:50:55;;;;;;;;;;;3.00;99.90;;;;;;4985766;28;19933;-74
2022/01/14 02:53:28;;;;;;;;;;;2.90;99.90;;;;;;4953612;28;19910;-74
2022/01/14 02:56:01;;;;;;;;;;;2.90;99.90;;;;;;4987241;28;20243;-74
2022/01/14 02:58:29;;;;;;;;;;;2.90;99.90;;;;;;4986773;28;19922;-75
2022/01/14 03:00:57;;;;;;;;;;;3.00;99.90;;;;;;4986811;28;19916;-74
2022/01/14 03:03:23;;;;;;;;;;;3.00;99.90;;;;;;4969588;28;19914;-74
2022/01/14 03:05:50;;;;;;;;;;;2.90;99.90;;;;;;4986524;28;20001;-75
2022/01/14 03:08:16;;;;;;;;;;;3.00;99.90;;;;;;4986864;28;20388;-75
2022/01/14 03:10:43;;;;;;;;;;;3.00;99.90;;;;;;4986777;28;20380;-75
2022/01/14 03:13:08;;;;;;;;;;;3.00;99.90;;;;;;4969371;28;19981;-75
2022/01/14 03:15:34;;;;;;;;;;;2.90;99.90;;;;;;4953189;28;19910;-75
2022/01/14 03:17:59;;;;;;;;;;;2.90;99.90;;;;;;4953321;28;19933;-75
2022/01/14 03:20:48;;;;;;;;;;;3.00;99.90;;;;;;4969269;28;19917;-75
2022/01/14 03:23:15;;;;;;;;;;;2.90;99.90;;;;;;4969255;28;19916;-74
2022/01/14 03:25:51;;;;;;;;;;;3.00;99.90;;;;;;4969401;28;19976;-75
2022/01/14 03:28:17;;;;;;;;;;;2.90;99.90;;;;;;4953312;28;20330;-74
2022/01/14 03:30:44;;;;;;;;;;;2.90;99.90;;;;;;4979320;23;19910;-73
2022/01/14 03:33:10;;;;;;;;;;;2.90;99.90;;;;;;4985199;28;20348;-74
2022/01/14 03:35:35;;;;;;;;;;;2.90;99.90;;;;;;4953515;28;19917;-74
2022/01/14 03:38:01;;;;;;;;;;;3.00;99.90;;;;;;4969507;28;19930;-74
2022/01/14 03:40:26;;;;;;;;;;;3.00;99.90;;;;;;4986856;28;19964;-74
2022/01/14 03:42:53;;;;;;;;;;;3.00;99.90;;;;;;4986733;28;19933;-75
2022/01/14 03:45:18;;;;;;;;;;;3.00;99.90;;;;;;4986708;28;19917;-74
2022/01/14 03:47:44;;;;;;;;;;;3.00;99.90;;;;;;4971334;28;20118;-74
2022/01/14 03:50:10;;;;;;;;;;;3.00;99.90;;;;;;4990312;28;19910;-74
2022/01/14 03:52:35;;;;;;;;;;;3.00;99.90;;;;;;4990226;28;19914;-75
2022/01/14 03:55:01;;;;;;;;;;;3.00;99.90;;;;;;4972842;28;19914;-74
2022/01/14 03:57:26;;;;;;;;;;;3.00;99.90;;;;;;4972847;28;20424;-74
2022/01/14 03:59:52;;;;;;;;;;;3.00;99.90;;;;;;4989945;28;19925;-74
2022/01/14 04:02:20;;;;;;;;;;;2.90;99.90;;;;;;4990321;28;19910;-74
2022/01/14 04:04:46;;;;;;;;;;;2.90;99.90;;;;;;4989653;28;19910;-74
2022/01/14 04:07:11;;;;;;;;;;;2.90;99.90;;;;;;4989888;28;19957;-73
2022/01/14 04:09:37;;;;;;;;;;;2.90;99.90;;;;;;4972435;28;19910;-74
2022/01/14 04:12:03;;;;;;;;;;;2.90;99.90;;;;;;4989776;28;19910;-74
2022/01/14 04:16:57;;;;;;;;;;;2.90;99.90;;;;;;4988407;28;20413;-74
2022/01/14 04:19:26;;;;;;;;;;;2.90;99.90;;;;;;4989573;28;19934;-74
2022/01/14 04:21:52;;;;;;;;;;;2.90;99.90;;;;;;4989477;28;19921;-74
2022/01/14 04:24:17;;;;;;;;;;;2.80;99.90;;;;;;4989172;28;19910;-75
2022/01/14 04:26:42;;;;;;;;;;;2.80;99.90;;;;;;4989347;28;19910;-74
2022/01/14 04:29:08;;;;;;;;;;;2.90;99.90;;;;;;4989320;28;19909;-73
2022/01/14 04:31:33;;;;;;;;;;;2.90;99.90;;;;;;4988886;28;19941;-74
2022/01/14 04:33:59;;;;;;;;;;;2.90;99.90;;;;;;4971642;28;19909;-75
2022/01/14 04:36:24;;;;;;;;;;;2.80;99.90;;;;;;4989032;28;19964;-75
2022/01/14 04:38:50;;;;;;;;;;;2.80;99.90;;;;;;4971673;28;19989;-74
2022/01/14 04:41:15;;;;;;;;;;;2.80;99.90;;;;;;4989301;28;20270;-74
2022/01/14 04:43:41;;;;;;;;;;;2.80;99.90;;;;;;4988749;28;19921;-75
2022/01/14 04:48:33;;;;;;;;;;;2.80;99.90;;;;;;4971569;28;19933;-75
2022/01/14 04:50:59;;;;;;;;;;;2.80;99.90;;;;;;4971633;28;19937;-74
2022/01/14 04:53:25;;;;;;;;;;;2.80;99.90;;;;;;4988709;28;19941;-75
2022/01/14 04:55:51;;;;;;;;;;;2.80;99.90;;;;;;4955272;28;19914;-74
2022/01/14 04:58:17;;;;;;;;;;;2.80;99.90;;;;;;4971023;28;19942;-74
2022/01/14 05:00:42;;;;;;;;;;;2.80;99.90;;;;;;4971103;28;19965;-75
2022/01/14 05:03:08;;;;;;;;;;;2.80;99.90;;;;;;4955272;28;19984;-75
2022/01/14 05:05:37;;;;;;;;;;;2.80;99.90;;;;;;4971159;28;19917;-74
2022/01/14 05:08:08;;;;;;;;;;;2.80;99.90;;;;;;4988369;28;19917;-75
2022/01/14 05:10:37;;;;;;;;;;;2.80;99.90;;;;;;4988642;28;19910;-75
2022/01/14 05:13:03;;;;;;;;;;;2.80;99.90;;;;;;4971348;28;19926;-75
2022/01/14 05:15:28;;;;;;;;;;;2.90;99.90;;;;;;4971978;28;19910;-75
2022/01/14 05:17:54;;;;;;;;;;;2.90;99.90;;;;;;4988247;28;19918;-75
2022/01/14 05:20:20;;;;;;;;;;;2.90;99.90;;;;;;4954830;28;19945;-75
2022/01/14 05:22:46;;;;;;;;;;;2.90;99.90;;;;;;4970908;28;19917;-75
2022/01/14 05:25:13;;;;;;;;;;;2.80;99.90;;;;;;4970580;28;19941;-75
2022/01/14 05:27:39;;;;;;;;;;;2.90;99.90;;;;;;4954647;28;20366;-74
2022/01/14 05:30:25;;;;;;;;;;;2.90;99.90;;;;;;4954474;28;19930;-74
2022/01/14 05:32:52;;;;;;;;;;;2.90;99.90;;;;;;5002942;23;19921;-74
2022/01/14 05:35:19;;;;;;;;;;;2.90;99.90;;;;;;4990352;28;19917;-74
2022/01/14 05:37:45;;;;;;;;;;;2.90;99.90;;;;;;4974186;28;19941;-75
2022/01/14 05:40:11;;;;;;;;;;;2.80;99.90;;;;;;5007655;28;19909;-74
2022/01/14 05:42:37;;;;;;;;;;;2.90;99.90;;;;;;4970823;28;19964;-74
2022/01/14 05:45:03;;;;;;;;;;;2.80;99.90;;;;;;4970836;28;19909;-75
2022/01/14 05:47:29;;;;;;;;;;;2.90;99.90;;;;;;4988071;28;19932;-74
2022/01/14 05:49:54;;;;;;;;;;;2.90;99.90;;;;;;4988155;28;19941;-74
2022/01/14 05:52:21;;;;;;;;;;;2.90;99.90;;;;;;4988001;28;19910;-74
2022/01/14 05:54:48;;;;;;;;;;;2.90;99.90;;;;;;4987816;28;19917;-74
2022/01/14 05:57:14;;;;;;;;;;;2.90;99.90;;;;;;4987685;28;20020;-74
2022/01/14 05:59:39;;;;;;;;;;;2.90;99.90;;;;;;4988124;28;19938;-74
2022/01/14 06:02:05;;;;;;;;;;;2.90;99.90;;;;;;4970434;28;19906;-74
2022/01/14 06:04:30;;;;;;;;;;;2.90;99.90;;;;;;4970396;28;20298;-74
2022/01/14 06:06:56;;;;;;;;;;;2.90;99.90;;;;;;4987585;28;20136;-74
2022/01/14 06:09:21;;;;;;;;;;;2.90;99.90;;;;;;4969886;28;19945;-75
2022/01/14 06:11:47;;;;;;;;;;;2.90;99.90;;;;;;4969969;28;19910;-73
2022/01/14 06:14:13;;;;;;;;;;;2.90;99.90;;;;;;4987306;28;19910;-74
2022/01/14 06:16:38;;;;;;;;;;;2.90;99.90;;;;;;4985028;28;20996;-74
2022/01/14 06:19:04;;;;;;;;;;;2.90;99.90;;;;;;4986937;28;20021;-73
2022/01/14 06:21:29;;;;;;;;;;;2.90;99.90;;;;;;4986059;28;19910;-75
2022/01/14 06:23:55;;;;;;;;;;;3.00;99.90;;;;;;4986958;28;19910;-73
2022/01/14 06:26:20;;;;;;;;;;;3.00;99.90;;;;;;4969736;28;19948;-74
2022/01/14 06:28:46;;;;;;;;;;;3.00;99.90;;;;;;4986436;28;19909;-74
2022/01/14 06:31:11;;;;;;;;;;;3.00;99.90;;;;;;4987485;28;19914;-74
2022/01/14 06:33:37;;;;;;;;;;;3.00;99.90;;;;;;4968954;28;19989;-74
2022/01/14 06:36:02;;;;;;;;;;;3.00;99.90;;;;;;4969698;28;19957;-74
2022/01/14 06:38:28;;;;;;;;;;;3.00;99.90;;;;;;4969536;28;19918;-74
2022/01/14 06:40:54;;;;;;;;;;;3.00;99.90;;;;;;4969498;28;19961;-75
2022/01/14 06:43:20;;;;;;;;;;;3.00;99.90;;;;;;4984916;28;19910;-75
2022/01/14 06:45:45;;;;;;;;;;;3.00;99.90;;;;;;4972647;28;19917;-75
2022/01/14 06:48:11;;;;;;;;;;;3.00;99.90;;;;;;5005900;28;19917;-75
2022/01/14 06:50:36;;;;;;;;;;;3.00;99.90;;;;;;5006326;28;19909;-75
2022/01/14 06:53:02;;;;;;;;;;;3.00;99.90;;;;;;5006387;28;19913;-75
2022/01/14 06:55:28;;;;;;;;;;;3.00;99.90;;;;;;4988594;28;19910;-75
2022/01/14 06:57:53;;;;;;;;;;;3.00;99.90;;;;;;4988634;28;20002;-75
2022/01/14 07:00:19;;;;;;;;;;;3.00;99.90;;;;;;4988680;28;19913;-75
2022/01/14 07:02:45;;;;;;;;;;;3.00;99.90;;;;;;4988431;28;19976;-74
2022/01/14 07:05:11;;;;;;;;;;;3.00;99.90;;;;;;5006070;28;19917;-77
2022/01/14 07:07:37;;;;;;;;;;;3.00;99.90;;;;;;5006101;28;20365;-75
2022/01/14 07:10:07;;;;;;;;;;;3.00;99.90;;;;;;4972485;28;19914;-75
2022/01/14 07:12:37;;;;;;;;;;;3.00;99.90;;;;;;4988358;28;19917;-75
2022/01/14 07:15:04;;;;;;;;;;;3.00;99.90;;;;;;4988391;28;19910;-75
2022/01/14 07:17:30;;;;;;;;;;;3.00;99.90;;;;;;4989183;28;19917;-75
2022/01/14 07:19:59;;;;;;;;;;;3.00;99.90;;;;;;4988543;28;19909;-74
2022/01/14 07:22:25;;;;;;;;;;;3.00;99.90;;;;;;4989604;28;19928;-75
2022/01/14 07:24:50;;;;;;;;;;;2.90;99.90;;;;;;4992091;28;19909;-74
2022/01/14 07:27:16;;;;;;;;;;;2.90;99.90;;;;;;4992106;28;19917;-74
2022/01/14 07:29:42;;;;;;;;;;;2.90;99.90;;;;;;4976158;28;19910;-74
2022/01/14 07:32:08;;;;;;;;;;;2.90;99.90;;;;;;4975633;28;20305;-74
2022/01/14 07:34:33;;;;;;;;;;;2.90;99.90;;;;;;5009571;28;19914;-74
2022/01/14 07:36:59;;;;;;;;;;;2.90;99.90;;;;;;4976025;28;19924;-74
2022/01/14 07:39:25;;;;;;;;;;;3.00;99.90;;;;;;5008317;28;19957;-74
2022/01/14 07:41:51;;;;;;;;;;;3.00;99.90;;;;;;4991874;28;19933;-74
2022/01/14 07:44:17;;;;;;;;;;;2.90;99.90;;;;;;4992051;28;19910;-74
2022/01/14 07:46:42;;;;;;;;;;;3.00;99.90;;;;;;4975505;28;20255;-74
2022/01/14 07:49:08;;;;;;;;;;;3.00;99.90;;;;;;4991993;28;19965;-74
2022/01/14 07:51:33;;;;;;;;;;;3.00;99.90;;;;;;4991942;28;19910;-74
2022/01/14 07:54:04;;;;;;;;;;;2.90;99.90;;;;;;5009248;28;19909;-74
2022/01/14 07:56:34;;;;;;;;;;;3.00;99.90;;;;;;5009294;28;19910;-75
2022/01/14 07:58:59;;;;;;;;;;;3.00;99.90;;;;;;4991780;28;19909;-74
2022/01/14 08:01:26;;;;;;;;;;;3.00;99.90;;;;;;4991507;28;19910;-74
2022/01/14 08:03:52;;;;;;;;;;;3.00;99.90;;;;;;4991775;28;20281;-74
2022/01/14 08:06:17;;;;;;;;;;;3.00;99.90;;;;;;4991660;28;19910;-76
2022/01/14 08:08:44;;;;;;;;;;;3.00;99.90;;;;;;5009027;28;19910;-74
2022/01/14 08:11:09;;;;;;;;;;;3.00;99.90;;;;;;5009106;28;19949;-75
2022/01/14 08:13:35;;;;;;;;;;;3.00;99.90;;;;;;5008621;28;19909;-83
2022/01/14 08:16:00;;;;;;;;;;;3.00;99.90;;;;;;4956859;28;20008;-82
2022/01/14 08:18:26;;;;;;;;;;;3.00;99.90;;;;;;4991036;28;20014;-80
2022/01/14 08:20:52;;;;;;;;;;;3.00;99.90;;;;;;4988282;28;20291;-82
2022/01/14 08:23:19;;;;;;;;;;;3.00;99.90;;;;;;4987217;28;19929;-77
2022/01/14 08:25:45;;;;;;;;;;;3.10;99.90;;;;;;4991387;28;19910;-86
2022/01/14 08:28:10;;;;;;;;;;;3.10;99.90;;;;;;4986696;28;19917;-87
2022/01/14 08:30:36;;;;;;;;;;;3.10;99.90;;;;;;4986818;28;19910;-77
2022/01/14 08:33:01;;;;;;;;;;;3.10;99.90;;;;;;5004707;28;19917;-86
2022/01/14 08:35:27;;;;;;;;;;;3.10;99.90;;;;;;5005393;28;19910;-79
2022/01/14 08:37:53;;;;;;;;;;;3.20;99.90;;;;;;5003010;28;19922;-76
2022/01/14 08:40:18;;;;;;;;;;;3.20;99.90;;;;;;5025568;28;20495;-79
2022/01/14 08:42:47;;;;;;;;;;;3.20;99.90;;;;;;5019005;28;19909;-84
2022/01/14 08:45:18;;;;;;;;;;;3.10;99.90;;;;;;5021973;28;19913;-78
2022/01/14 08:47:43;;;;;;;;;;;3.20;99.90;;;;;;5020789;28;19909;-84
2022/01/14 08:50:09;;;;;;;;;;;3.20;99.90;;;;;;5023919;28;19910;-76
2022/01/14 08:52:34;;;;;;;;;;;3.20;99.90;;;;;;5022856;28;19909;-79
2022/01/14 08:55:00;;;;;;;;;;;3.20;99.90;;;;;;5022034;28;20373;-80
2022/01/14 08:57:26;;;;;;;;;;;3.20;99.90;;;;;;5005174;28;19924;-79
2022/01/14 08:59:51;;;;;;;;;;;3.30;99.90;;;;;;5021102;28;19941;-82
2022/01/14 09:02:17;;;;;;;;;;;3.30;99.90;;;;;;5005224;28;19909;-79
2022/01/14 09:04:42;;;;;;;;;;;3.30;99.90;;;;;;5008869;28;19917;-80
2022/01/14 09:07:08;;;;;;;;;;;3.30;99.90;;;;;;5025665;28;19949;-76
2022/01/14 09:09:33;;;;;;;;;;;3.40;99.90;;;;;;5009575;28;19932;-78
2022/01/14 09:12:00;;;;;;;;;;;3.40;99.90;;;;;;5009317;28;19921;-79
2022/01/14 09:14:26;;;;;;;;;;;3.40;99.90;;;;;;5026515;28;19981;-87
2022/01/14 09:16:51;;;;;;;;;;;3.40;99.90;;;;;;5026877;28;19921;-79
2022/01/14 09:19:17;;;;;;;;;;;3.40;99.90;;;;;;5009112;28;19917;-80
2022/01/14 09:21:44;;;;;;;;;;;3.40;99.90;;;;;;5009181;28;19914;-82
2022/01/14 09:24:10;;;;;;;;;;;3.40;99.90;;;;;;5009063;28;19909;-77
2022/01/14 09:26:37;;;;;;;;;;;3.40;99.90;;;;;;5009150;28;19992;-84
2022/01/14 09:29:03;;;;;;;;;;;3.40;99.90;;;;;;4980126;28;19920;-79
2022/01/14 09:31:29;;;;;;;;;;;3.40;99.90;;;;;;4978455;28;20013;-82
2022/01/14 09:33:54;;;;;;;;;;;3.40;99.90;;;;;;5025241;28;20262;-79
2022/01/14 09:36:20;;;;;;;;;;;3.40;99.90;;;;;;5025419;28;19909;-75
2022/01/14 09:38:47;;;;;;;;;;;3.50;99.90;;;;;;5026648;28;19922;-80
2022/01/14 09:41:13;;;;;;;;;;;3.50;99.90;;;;;;5026448;28;19965;-76
2022/01/14 09:43:39;;;;;;;;;;;3.50;99.90;;;;;;4980957;28;19928;-75
2022/01/14 09:46:06;;;;;;;;;;;3.40;99.90;;;;;;4999650;28;19913;-76
2022/01/14 09:48:32;;;;;;;;;;;3.50;99.90;;;;;;5009222;28;19916;-77
2022/01/14 09:50:58;;;;;;;;;;;3.50;99.90;;;;;;5009021;28;19984;-78
2022/01/14 09:53:24;;;;;;;;;;;3.60;99.90;;;;;;5005505;28;19945;-80
2022/01/14 09:55:50;;;;;;;;;;;3.50;99.90;;;;;;4987706;28;19934;-82
2022/01/14 09:58:16;;;;;;;;;;;3.50;99.90;;;;;;4987824;28;19921;-78
2022/01/14 10:00:41;;;;;;;;;;;3.50;99.90;;;;;;4970435;28;19910;-82
2022/01/14 10:03:20;;;;;;;;;;;3.50;99.90;;;;;;5011438;28;19909;-78
2022/01/14 10:05:51;;;;;;;;;;;3.70;99.90;;;;;;5004061;28;19909;-77
2022/01/14 10:08:21;;;;;;;;;;;3.70;99.90;;;;;;5024403;28;19948;-81
2022/01/14 10:10:49;;;;;;;;;;;3.70;99.90;;;;;;5007018;28;19992;-80
2022/01/14 10:13:19;;;;;;;;;;;3.80;99.90;;;;;;5006558;28;20362;-78
2022/01/14 10:15:49;;;;;;;;;;;3.80;99.90;;;;;;5008552;28;20387;-80
2022/01/14 10:18:19;;;;;;;;;;;3.70;99.90;;;;;;5009084;28;19993;-86
2022/01/14 10:20:44;;;;;;;;;;;3.70;99.90;;;;;;5010464;28;19919;-81
2022/01/14 10:23:12;;;;;;;;;;;3.80;99.90;;;;;;5025987;28;19981;-81
2022/01/14 10:25:38;;;;;;;;;;;3.80;99.90;;;;;;5003817;28;19948;-76
2022/01/14 10:28:14;;;;;;;;;;;3.80;99.90;;;;;;5008724;28;19953;-76
2022/01/14 10:33:30;;;;;;;;;;;3.80;99.90;;;;;;4918692;29;19961;-77
2022/01/14 10:35:56;;;;;;;;;;;3.80;99.90;;;;;;4920453;29;19912;-76
2022/01/14 10:38:22;;;;;;;;;;;3.90;99.90;;;;;;4921012;29;19947;-75
2022/01/14 10:40:49;;;;;;;;;;;3.80;99.90;;;;;;4909570;29;19964;-74
2022/01/14 10:43:16;;;;;;;;;;;3.80;99.90;;;;;;4952808;28;20017;-75
2022/01/14 10:45:43;;;;;;;;;;;3.70;99.90;;;;;;4968576;28;19910;-75
2022/01/14 10:48:10;;;;;;;;;;;3.80;99.90;;;;;;4965224;29;19910;-83
2022/01/14 10:50:38;;;;;;;;;;;3.90;99.90;;;;;;4966699;29;19907;-78
2022/01/14 10:53:36;;;;;;;;;;;3.90;99.90;;;;;;4965160;29;19970;-76
2022/01/14 10:56:09;;;;;;;;;;;3.90;99.90;;;;;;4931594;29;19926;-75
2022/01/14 10:58:36;;;;;;;;;;;3.90;99.90;;;;;;4967442;28;20143;-76
2022/01/14 11:01:06;;;;;;;;;;;4.00;99.90;;;;;;4970240;29;19914;-75
2022/01/14 11:03:37;;;;;;;;;;;3.90;99.90;;;;;;4963507;29;19969;-75
2022/01/14 11:06:14;;;;;;;;;;;4.00;99.90;;;;;;4969654;29;19910;-76
2022/01/14 11:08:39;;;;;;;;;;;4.00;99.90;;;;;;4969430;29;19910;-75
2022/01/14 11:11:06;;;;;;;;;;;3.90;99.90;;;;;;4969330;29;19924;-75
2022/01/14 11:13:32;;;;;;;;;;;3.90;99.90;;;;;;4969137;29;19914;-75
2022/01/14 11:15:57;;;;;;;;;;;4.00;99.90;;;;;;4969284;29;19914;-75
2022/01/14 11:18:24;;;;;;;;;;;4.00;99.90;;;;;;4969375;28;19941;-74
2022/01/14 11:23:34;;;;;;;;;;;4.00;99.90;;;;;;4970490;29;19911;-76
2022/01/14 11:26:01;;;;;;;;;;;4.00;99.90;;;;;;4970445;29;19916;-76
2022/01/14 11:28:29;;;;;;;;;;;4.00;99.90;;;;;;4970267;29;19945;-76
2022/01/14 11:30:54;;;;;;;;;;;4.00;99.90;;;;;;4971303;28;19911;-75
2022/01/14 11:33:36;;;;;;;;;;;4.00;99.90;;;;;;4989513;28;19968;-75
2022/01/14 11:36:02;;;;;;;;;;;4.10;99.90;;;;;;4989499;28;19930;-75
2022/01/14 11:38:39;;;;;;;;;;;4.10;99.90;;;;;;4989419;28;19918;-75
2022/01/14 11:41:04;;;;;;;;;;;4.10;99.90;;;;;;4989350;28;19910;-75
2022/01/14 11:43:40;;;;;;;;;;;4.00;99.90;;;;;;4972093;28;19952;-76
2022/01/14 11:46:06;;;;;;;;;;;4.10;99.90;;;;;;4970044;28;20281;-76
2022/01/14 11:48:35;;;;;;;;;;;4.10;99.90;;;;;;4969615;28;19916;-76
2022/01/14 11:51:01;;;;;;;;;;;4.10;99.90;;;;;;4969841;28;19910;-76
2022/01/14 11:53:37;;;;;;;;;;;4.00;99.90;;;;;;4969753;29;20405;-77
2022/01/14 11:56:07;;;;;;;;;;;4.10;99.90;;;;;;4984668;28;19974;-75
2022/01/14 11:58:33;;;;;;;;;;;4.20;99.90;;;;;;4969384;28;19929;-76
2022/01/14 12:00:59;;;;;;;;;;;4.10;99.90;;;;;;4984676;28;19910;-76
2022/01/14 12:03:26;;;;;;;;;;;4.10;99.90;;;;;;4967972;29;19910;-75
2022/01/14 12:05:54;;;;;;;;;;;4.20;99.90;;;;;;4984610;28;19991;-75
2022/01/14 12:08:21;;;;;;;;;;;4.20;99.90;;;;;;4983362;28;19910;-76
2022/01/14 12:11:14;;;;;;;;;;;4.20;99.90;;;;;;4969685;28;20394;-76
2022/01/14 12:13:58;;;;;;;;;;;4.30;99.90;;;;;;4967085;29;19910;-75
2022/01/14 12:18:56;;;;;;;;;;;4.30;99.90;;;;;;4969468;28;19910;-75
2022/01/14 12:21:40;;;;;;;;;;;4.30;99.90;;;;;;4969539;29;19978;-76
2022/01/14 12:24:15;;;;;;;;;;;4.40;99.90;;;;;;4970213;29;19910;-76
2022/01/14 12:26:56;;;;;;;;;;;4.30;99.90;;;;;;4984183;28;19910;-75
2022/01/14 12:29:32;;;;;;;;;;;4.40;99.90;;;;;;4986958;28;19917;-75
2022/01/14 12:32:02;;;;;;;;;;;4.40;99.90;;;;;;4988103;28;19918;-75
2022/01/14 12:34:28;;;;;;;;;;;4.40;99.90;;;;;;4988551;28;19917;-76
2022/01/14 12:36:53;;;;;;;;;;;4.40;99.90;;;;;;4971079;28;19921;-75
2022/01/14 12:39:19;;;;;;;;;;;4.40;99.90;;;;;;4988579;28;19910;-76
2022/01/14 12:41:45;;;;;;;;;;;4.50;99.90;;;;;;5000452;28;19941;-76
2022/01/14 12:44:10;;;;;;;;;;;4.40;99.90;;;;;;4983417;28;19917;-75
2022/01/14 12:49:27;;;;;;;;;;;4.40;99.90;;;;;;4969017;29;20292;-76
2022/01/14 12:52:02;;;;;;;;;;;4.40;99.90;;;;;;4969085;28;19914;-76
2022/01/14 12:54:28;;;;;;;;;;;4.40;99.90;;;;;;4983773;28;19920;-75
2022/01/14 12:56:54;;;;;;;;;;;4.40;99.90;;;;;;4968963;28;19960;-75
2022/01/14 12:59:19;;;;;;;;;;;4.40;99.90;;;;;;4968948;29;19910;-76
2022/01/14 13:01:49;;;;;;;;;;;4.40;99.90;;;;;;4968733;29;19925;-75
2022/01/14 13:04:15;;;;;;;;;;;4.40;99.90;;;;;;4968572;28;20438;-75
2022/01/14 13:06:45;;;;;;;;;;;4.40;99.90;;;;;;4968840;28;19938;-78
2022/01/14 13:09:11;;;;;;;;;;;4.40;99.90;;;;;;4983774;28;19910;-79
2022/01/14 13:11:47;;;;;;;;;;;4.50;99.90;;;;;;4967472;29;19917;-79
2022/01/14 13:14:17;;;;;;;;;;;4.50;99.90;;;;;;4983227;28;19933;-83
2022/01/14 13:16:44;;;;;;;;;;;4.50;99.90;;;;;;4983876;28;19925;-79
2022/01/14 13:19:22;;;;;;;;;;;4.50;99.90;;;;;;4968451;28;19910;-78
2022/01/14 13:21:48;;;;;;;;;;;4.50;99.90;;;;;;4968910;28;19910;-80
2022/01/14 13:24:17;;;;;;;;;;;4.50;99.90;;;;;;4968449;29;19998;-82
2022/01/14 13:26:43;;;;;;;;;;;4.50;99.90;;;;;;4968558;28;19953;-79
2022/01/14 13:29:08;;;;;;;;;;;4.60;99.90;;;;;;4981603;28;19941;-79
2022/01/14 13:31:34;;;;;;;;;;;4.50;99.90;;;;;;4986094;28;19924;-80
2022/01/14 13:33:59;;;;;;;;;;;4.50;99.90;;;;;;4987130;28;19964;-79
2022/01/14 13:36:25;;;;;;;;;;;4.50;99.90;;;;;;4987629;28;20250;-79
2022/01/14 13:39:06;;;;;;;;;;;4.50;99.90;;;;;;4987330;28;19969;-77
2022/01/14 13:41:32;;;;;;;;;;;4.40;99.90;;;;;;4986215;28;19949;-76
2022/01/14 13:44:13;;;;;;;;;;;4.50;99.90;;;;;;4982731;28;19934;-80
2022/01/14 13:46:50;;;;;;;;;;;4.40;99.90;;;;;;4982844;28;19910;-77
2022/01/14 13:49:21;;;;;;;;;;;4.40;99.90;;;;;;4982570;28;19915;-76
2022/01/14 13:52:00;;;;;;;;;;;4.40;99.90;;;;;;4982733;28;19916;-77
2022/01/14 13:54:25;;;;;;;;;;;4.50;99.90;;;;;;4982446;28;20438;-80
2022/01/14 13:56:51;;;;;;;;;;;4.50;99.90;;;;;;4982769;28;19944;-78
2022/01/14 13:59:19;;;;;;;;;;;4.60;99.90;;;;;;4967805;29;19926;-81
2022/01/14 14:01:58;;;;;;;;;;;4.50;99.90;;;;;;4967629;28;19914;-76
2022/01/14 14:04:26;;;;;;;;;;;4.50;99.90;;;;;;4982554;28;19910;-79
2022/01/14 14:07:03;;;;;;;;;;;4.40;99.90;;;;;;4982373;28;19910;-80
2022/01/14 14:09:35;;;;;;;;;;;4.50;99.90;;;;;;4982257;28;19910;-76
2022/01/14 14:12:36;;;;;;;;;;;4.60;99.90;;;;;;4982617;28;19910;-84
2022/01/14 14:17:42;;;;;;;;;;;4.50;99.90;;;;;;4982612;28;20006;-78
2022/01/14 14:20:08;;;;;;;;;;;4.60;99.90;;;;;;4966031;29;19911;-80
2022/01/14 14:22:36;;;;;;;;;;;4.60;99.90;;;;;;4967596;29;19911;-81
2022/01/14 14:25:10;;;;;;;;;;;4.60;99.90;;;;;;4982328;28;19964;-77
2022/01/14 14:27:36;;;;;;;;;;;4.50;99.90;;;;;;4968506;28;19974;-80
2022/01/14 14:30:26;;;;;;;;;;;4.50;99.90;;;;;;4986490;28;19914;-79
2022/01/14 14:32:53;;;;;;;;;;;4.50;99.90;;;;;;4926549;29;20035;-81
2022/01/14 14:35:19;;;;;;;;;;;4.50;99.90;;;;;;4926687;29;19911;-80
2022/01/14 14:37:48;;;;;;;;;;;4.50;99.90;;;;;;4926774;29;19919;-82
2022/01/14 14:40:17;;;;;;;;;;;4.50;99.90;;;;;;4910873;29;19915;-77
2022/01/14 14:42:43;;;;;;;;;;;4.50;99.90;;;;;;4926402;29;20367;-77
2022/01/14 14:45:09;;;;;;;;;;;4.50;99.90;;;;;;4926307;29;19938;-79
2022/01/14 14:47:35;;;;;;;;;;;4.50;99.90;;;;;;4926727;29;19931;-79
2022/01/14 14:50:01;;;;;;;;;;;4.50;99.90;;;;;;4926566;29;19963;-78
2022/01/14 14:52:26;;;;;;;;;;;4.50;99.90;;;;;;4926646;29;19911;-82
2022/01/14 14:54:53;;;;;;;;;;;4.40;99.90;;;;;;4926704;29;19950;-85
2022/01/14 14:57:19;;;;;;;;;;;4.40;99.90;;;;;;4927040;29;20387;-79
2022/01/14 14:59:44;;;;;;;;;;;4.40;99.90;;;;;;4926726;29;19911;-76
2022/01/14 15:02:12;;;;;;;;;;;4.40;99.90;;;;;;4926469;29;19946;-77
2022/01/14 15:04:39;;;;;;;;;;;4.40;99.90;;;;;;4926501;29;19918;-82
2022/01/14 15:07:04;;;;;;;;;;;4.50;99.90;;;;;;4927423;29;19911;-86
2022/01/14 15:09:30;;;;;;;;;;;4.40;99.90;;;;;;4941724;29;19921;-77
2022/01/14 15:11:56;;;;;;;;;;;4.50;99.90;;;;;;4967014;29;19910;-79
2022/01/14 15:14:22;;;;;;;;;;;4.40;99.90;;;;;;4967404;29;19926;-81